Time;durP1;ratioP1;P1;durP2;ratioP2;P2;SDS_P1;SDS_P2;PMS_P1;PMS_P2;Temp;Humidity;BMP_temperature;BMP_pressure;BME280_temperature;BME280_humidity;BME280_pressure;Samples;Min_cycle;Max_cycle;Signal;HPM_P1;HPM_P2
2022/09/23 00:00:27;;;;;;;4.40;4.00;;;;;;;13.30;61.70;94842.81;5111853;28;20193;-82
2022/09/23 00:02:55;;;;;;;3.90;3.60;;;;;;;13.22;61.70;94828.16;5105316;28;20201;-78
2022/09/23 00:05:21;;;;;;;4.27;3.83;;;;;;;13.16;61.83;94822.78;5111463;28;20639;-78
2022/09/23 00:07:48;;;;;;;4.20;3.80;;;;;;;13.26;61.77;94842.31;5111081;28;20727;-83
2022/09/23 00:10:15;;;;;;;6.97;3.73;;;;;;;13.27;61.93;94835.41;5111457;28;20193;-82
2022/09/23 00:12:42;;;;;;;5.70;3.80;;;;;;;13.25;61.90;94834.75;5113185;28;20229;-85
2022/09/23 00:15:11;;;;;;;4.83;3.60;;;;;;;13.22;61.91;94825.59;5119048;28;20193;-82
2022/09/23 00:17:39;;;;;;;5.00;4.20;;;;;;;13.21;61.90;94830.84;5095407;28;20196;-79
2022/09/23 00:20:08;;;;;;;4.50;4.10;;;;;;;13.19;61.96;94828.44;5094813;28;20736;-81
2022/09/23 00:22:35;;;;;;;4.50;4.10;;;;;;;13.18;62.25;94836.28;5091906;28;20232;-87
2022/09/23 00:25:03;;;;;;;5.13;4.00;;;;;;;13.16;62.29;94828.72;5092018;28;20226;-81
2022/09/23 00:27:30;;;;;;;3.87;3.57;;;;;;;13.15;62.25;94828.88;5091447;28;20197;-77
2022/09/23 00:29:57;;;;;;;3.93;3.63;;;;;;;13.13;62.41;94835.94;5093540;28;20204;-79
2022/09/23 00:32:25;;;;;;;3.63;3.33;;;;;;;13.11;62.21;94833.50;5114747;28;20223;-83
2022/09/23 00:34:52;;;;;;;4.87;3.77;;;;;;;13.09;62.35;94829.50;5114986;28;20189;-82
2022/09/23 00:37:19;;;;;;;4.30;4.00;;;;;;;12.87;62.30;94793.06;5113051;28;20205;-85
2022/09/23 00:39:46;;;;;;;4.07;3.67;;;;;;;13.05;62.47;94829.78;5115705;28;20196;-83
2022/09/23 00:42:16;;;;;;;4.10;3.70;;;;;;;12.80;62.28;94784.34;5123557;28;20189;-83
2022/09/23 00:44:53;;;;;;;4.40;3.97;;;;;;;13.01;62.65;94825.88;5114173;28;20201;-82
2022/09/23 00:47:24;;;;;;;4.63;4.20;;;;;;;13.00;62.59;94831.19;5112712;28;20192;-86
2022/09/23 00:50:00;;;;;;;4.50;4.10;;;;;;;12.94;62.59;94819.72;5112477;28;20200;-79
2022/09/23 00:52:29;;;;;;;3.90;3.60;;;;;;;12.97;62.57;94834.03;5118611;28;20273;-88
2022/09/23 00:54:57;;;;;;;4.23;3.70;;;;;;;12.97;62.49;94827.16;5111330;28;20198;-82
2022/09/23 00:57:26;;;;;;;6.37;3.60;;;;;;;12.96;62.59;94832.44;5111582;28;20319;-87
2022/09/23 00:59:52;;;;;;;3.97;3.67;;;;;;;12.96;62.63;94832.44;5112046;28;20640;-79
2022/09/23 01:02:20;;;;;;;4.37;3.90;;;;;;;12.88;62.55;94822.91;5114440;28;20551;-83
2022/09/23 01:04:50;;;;;;;4.07;3.67;;;;;;;12.92;62.84;94836.25;5111313;28;20250;-85
2022/09/23 01:07:18;;;;;;;4.17;3.87;;;;;;;12.93;62.65;94833.53;5111646;28;20225;-85
2022/09/23 01:09:47;;;;;;;3.50;3.20;;;;;;;12.92;62.75;94831.13;5111416;28;20220;-88
2022/09/23 01:12:26;;;;;;;4.03;3.70;;;;;;;12.79;62.63;94814.34;5111226;28;20554;-87
2022/09/23 01:15:04;;;;;;;3.93;3.63;;;;;;;12.81;63.01;94821.88;5111507;28;20224;-84
2022/09/23 01:17:39;;;;;;;4.27;3.80;;;;;;;12.76;62.74;94817.19;5111582;28;20197;-85
2022/09/23 01:20:41;;;;;;;4.40;3.97;;;;;;;12.87;62.99;94830.75;5111061;28;20188;-81
2022/09/23 01:23:25;;;;;;;3.73;3.43;;;;;;;12.84;63.10;94828.47;5110621;28;20671;-79
2022/09/23 01:26:14;;;;;;;4.43;4.00;;;;;;;12.83;62.99;94837.94;5112615;28;20185;-81
2022/09/23 01:29:01;;;;;;;4.00;3.60;;;;;;;12.75;63.02;94827.59;5114607;28;20209;-80
2022/09/23 01:31:35;;;;;;;4.37;3.90;;;;;;;12.80;63.01;94835.66;5126062;28;20188;-77
2022/09/23 01:34:10;;;;;;;5.13;3.80;;;;;;;12.79;63.11;94846.91;5122237;28;20231;-84
2022/09/23 01:36:42;;;;;;;3.57;3.37;;;;;;;12.78;63.13;94842.72;5114216;28;20348;-84
2022/09/23 01:39:16;;;;;;;7.00;4.20;;;;;;;12.77;62.98;94841.09;5115069;28;20320;-86
2022/09/23 01:41:53;;;;;;;4.00;3.60;;;;;;;12.74;63.09;94842.19;5114314;28;20181;-83
2022/09/23 01:44:23;;;;;;;5.87;3.70;;;;;;;12.68;63.24;94842.78;5117207;28;20196;-84
2022/09/23 01:46:56;;;;;;;3.67;3.37;;;;;;;12.73;63.09;94847.47;5115201;28;20184;-82
2022/09/23 01:49:28;;;;;;;4.33;3.93;;;;;;;12.60;63.24;94829.88;5119882;28;20193;-81
2022/09/23 01:52:04;;;;;;;3.97;3.57;;;;;;;12.34;63.31;94790.50;5117618;28;20195;-85
2022/09/23 01:54:38;;;;;;;4.77;3.63;;;;;;;12.68;63.12;94841.97;5114335;28;20235;-88
2022/09/23 01:57:11;;;;;;;4.53;3.53;;;;;;;12.66;63.35;94842.13;5114035;28;20221;-84
2022/09/23 01:59:40;;;;;;;4.60;3.50;;;;;;;12.65;63.13;94840.53;5113725;28;20185;-89
2022/09/23 02:02:15;;;;;;;3.97;3.57;;;;;;;12.65;63.36;94844.81;5114987;28;20185;-88
2022/09/23 02:04:48;;;;;;;4.87;3.40;;;;;;;12.64;63.40;94843.22;5113055;28;20208;-76
2022/09/23 02:07:20;;;;;;;3.70;3.40;;;;;;;12.51;63.64;94828.19;5112219;28;20229;-78
2022/09/23 02:09:53;;;;;;;3.90;3.60;;;;;;;12.62;63.48;94838.25;5112881;28;20185;-76
2022/09/23 02:12:25;;;;;;;4.40;3.67;;;;;;;12.56;63.53;94825.97;5112388;28;20173;-80
2022/09/23 02:14:58;;;;;;;4.50;3.27;;;;;;;12.62;63.61;94840.00;5112429;28;20223;-77
2022/09/23 02:17:33;;;;;;;3.43;3.23;;;;;;;12.60;63.47;94834.19;5112309;28;20192;-76
2022/09/23 02:20:03;;;;;;;3.20;3.00;;;;;;;12.54;63.34;94831.28;5112365;28;20187;-77
2022/09/23 02:22:34;;;;;;;3.60;3.30;;;;;;;12.62;63.48;94847.69;5112373;28;20203;-77
2022/09/23 02:25:02;;;;;;;3.87;3.47;;;;;;;12.62;63.56;94840.00;5112300;28;20200;-78
2022/09/23 02:27:35;;;;;;;4.37;3.93;;;;;;;12.62;63.84;94840.81;5112222;28;20193;-75
2022/09/23 02:30:08;;;;;;;4.43;3.77;;;;;;;12.63;63.60;94839.03;5113004;28;20193;-86
2022/09/23 02:32:48;;;;;;;3.67;3.37;;;;;;;12.55;63.55;94824.38;5113450;28;20192;-85
2022/09/23 02:35:21;;;;;;;3.47;3.23;;;;;;;12.64;63.60;94844.03;5116510;28;20188;-85
2022/09/23 02:37:58;;;;;;;3.67;3.37;;;;;;;12.65;63.66;94832.81;5114313;28;20193;-86
2022/09/23 02:40:36;;;;;;;3.53;3.23;;;;;;;12.63;63.72;94837.28;5115156;28;20199;-85
2022/09/23 02:43:09;;;;;;;3.93;3.60;;;;;;;12.63;63.62;94833.91;5114286;28;20788;-84
2022/09/23 02:45:37;;;;;;;4.27;3.37;;;;;;;12.55;63.68;94825.19;5112978;28;20636;-85
2022/09/23 02:48:09;;;;;;;3.57;3.27;;;;;;;12.64;63.88;94848.34;5112930;28;20713;-86
2022/09/23 02:50:37;;;;;;;4.03;3.63;;;;;;;12.64;63.74;94846.59;5112868;28;20192;-85
2022/09/23 02:53:04;;;;;;;7.93;3.37;;;;;;;12.43;63.65;94815.28;5112337;28;20208;-83
2022/09/23 02:55:32;;;;;;;3.37;3.07;;;;;;;12.66;63.57;94846.47;5112211;28;20394;-83
2022/09/23 02:58:00;;;;;;;5.00;3.50;;;;;;;12.67;63.64;94846.31;5111846;28;20598;-78
2022/09/23 03:00:34;;;;;;;3.90;3.60;;;;;;;12.67;63.72;94848.88;5112885;28;20178;-85
2022/09/23 03:03:23;;;;;;;3.73;3.43;;;;;;;12.69;63.56;94858.97;5113522;28;20197;-86
2022/09/23 03:05:55;;;;;;;4.73;3.63;;;;;;;12.62;63.53;94838.25;5115514;28;20249;-86
2022/09/23 03:08:41;;;;;;;4.30;3.97;;;;;;;12.68;63.71;94854.81;5092176;28;20189;-88
2022/09/23 03:11:12;;;;;;;3.80;3.50;;;;;;;12.65;63.61;94853.34;5094544;28;20268;-76
2022/09/23 03:13:55;;;;;;;3.90;3.50;;;;;;;12.64;63.52;94854.28;5112483;28;20215;-78
2022/09/23 03:16:32;;;;;;;3.43;3.03;;;;;;;12.63;63.68;94857.81;5110971;28;20267;-76
2022/09/23 03:19:11;;;;;;;3.60;3.30;;;;;;;12.43;63.60;94821.22;5111137;28;20686;-77
2022/09/23 03:21:44;;;;;;;3.37;3.10;;;;;;;12.11;63.46;94777.31;5111447;28;20199;-75
2022/09/23 03:24:13;;;;;;;3.87;3.47;;;;;;;12.59;63.75;94847.97;5111453;28;20272;-76
2022/09/23 03:26:44;;;;;;;3.57;3.27;;;;;;;12.45;63.54;94828.78;5111860;28;20181;-76
2022/09/23 03:29:14;;;;;;;3.90;3.17;;;;;;;12.55;63.74;94861.09;5115659;28;20196;-77
2022/09/23 03:31:42;;;;;;;4.13;3.23;;;;;;;12.22;63.71;94797.63;5124638;28;20573;-77
2022/09/23 03:34:17;;;;;;;5.73;3.30;;;;;;;12.40;63.75;94821.53;5121848;28;20683;-78
2022/09/23 03:36:52;;;;;;;3.53;3.23;;;;;;;12.51;63.49;94846.94;5110826;28;20191;-77
2022/09/23 03:39:29;;;;;;;5.10;3.60;;;;;;;12.17;63.59;94795.47;5111585;28;20180;-76
2022/09/23 03:42:01;;;;;;;3.43;3.13;;;;;;;12.47;63.81;94847.38;5110557;28;20196;-76
2022/09/23 03:44:30;;;;;;;3.20;3.00;;;;;;;12.44;63.73;94850.25;5113400;28;20518;-75
2022/09/23 03:46:59;;;;;;;4.10;3.37;;;;;;;12.44;63.73;94851.06;5117496;28;20193;-77
2022/09/23 03:49:32;;;;;;;3.10;2.90;;;;;;;12.42;63.77;94854.72;5119427;28;20557;-76
2022/09/23 03:52:01;;;;;;;3.80;3.20;;;;;;;12.39;63.61;94850.69;5116273;28;20200;-76
2022/09/23 03:54:28;;;;;;;3.57;3.27;;;;;;;12.39;63.76;94850.69;5113601;28;20221;-76
2022/09/23 03:56:56;;;;;;;3.70;3.40;;;;;;;12.20;63.72;94823.41;5112514;28;20216;-77
2022/09/23 03:59:23;;;;;;;3.60;3.30;;;;;;;12.36;63.83;94853.53;5111395;28;20242;-77
2022/09/23 04:01:51;;;;;;;3.83;3.43;;;;;;;12.35;63.96;94861.34;5110733;28;20250;-75
2022/09/23 04:04:18;;;;;;;5.07;3.83;;;;;;;12.33;63.87;94863.28;5110922;28;20185;-76
2022/09/23 04:06:46;;;;;;;4.73;3.37;;;;;;;12.32;63.80;94864.22;5110343;28;20228;-77
2022/09/23 04:09:13;;;;;;;4.27;3.70;;;;;;;12.28;63.94;94861.94;5109814;28;20181;-78
2022/09/23 04:11:40;;;;;;;4.13;3.73;;;;;;;12.26;63.88;94861.28;5110778;28;20184;-76
2022/09/23 04:14:07;;;;;;;4.97;3.67;;;;;;;12.23;64.01;94866.69;5111031;28;20212;-76
2022/09/23 04:16:34;;;;;;;3.60;3.30;;;;;;;12.22;63.86;94865.09;5110967;28;20188;-75
2022/09/23 04:19:00;;;;;;;5.73;3.97;;;;;;;12.14;63.88;94859.88;5110663;28;20215;-77
2022/09/23 04:21:30;;;;;;;8.27;3.97;;;;;;;12.17;63.98;94874.94;5110253;28;20243;-78
2022/09/23 04:23:58;;;;;;;4.30;3.70;;;;;;;12.03;64.06;94857.50;5110016;28;20185;-76
2022/09/23 04:26:27;;;;;;;4.23;3.50;;;;;;;12.08;63.96;94863.00;5110576;28;20191;-81
2022/09/23 04:28:54;;;;;;;3.97;3.60;;;;;;;11.97;64.00;94855.50;5110992;28;20180;-82
2022/09/23 04:31:22;;;;;;;6.10;3.90;;;;;;;12.09;63.95;94869.75;5110698;28;20769;-79
2022/09/23 04:33:52;;;;;;;5.23;3.90;;;;;;;12.13;64.15;94881.31;5110738;28;20332;-79
2022/09/23 04:36:19;;;;;;;4.33;3.83;;;;;;;12.16;64.07;94887.91;5109575;28;20208;-80
2022/09/23 04:38:47;;;;;;;8.73;4.40;;;;;;;12.17;64.06;94889.53;5109808;28;20177;-85
2022/09/23 04:41:16;;;;;;;6.80;4.03;;;;;;;12.18;64.25;94896.28;5103479;28;20190;-86
2022/09/23 04:43:43;;;;;;;4.63;4.23;;;;;;;11.88;63.91;94839.22;5090325;28;20208;-83
2022/09/23 04:46:12;;;;;;;5.37;3.90;;;;;;;12.19;63.89;94903.84;5090785;28;20189;-78
2022/09/23 04:48:40;;;;;;;4.93;4.23;;;;;;;11.93;63.91;94860.09;5111060;28;20196;-76
2022/09/23 04:51:09;;;;;;;4.60;3.80;;;;;;;12.20;63.82;94897.75;5110117;28;20212;-84
2022/09/23 04:53:37;;;;;;;4.70;4.20;;;;;;;12.27;63.75;94906.50;5110751;28;20205;-81
2022/09/23 04:56:08;;;;;;;4.97;4.33;;;;;;;12.21;63.79;94896.78;5111400;28;20208;-79
2022/09/23 04:58:36;;;;;;;5.37;4.27;;;;;;;12.15;63.57;94874.31;5112233;28;20188;-81
2022/09/23 05:01:10;;;;;;;5.60;4.40;;;;;;;12.44;63.56;94914.38;5111977;28;20702;-81
2022/09/23 05:03:36;;;;;;;6.03;5.00;;;;;;;12.49;63.57;94914.75;5114352;28;20196;-75
2022/09/23 05:06:03;;;;;;;5.10;4.30;;;;;;;12.55;63.14;94909.84;5113522;28;20220;-76
2022/09/23 05:08:30;;;;;;;5.70;4.17;;;;;;;12.54;63.04;94903.09;5113950;28;20548;-75
2022/09/23 05:10:58;;;;;;;5.10;4.57;;;;;;;12.72;63.04;94917.72;5113628;28;20197;-75
2022/09/23 05:13:25;;;;;;;4.90;4.20;;;;;;;12.82;62.83;94913.31;5113934;28;20189;-75
2022/09/23 05:15:58;;;;;;;4.97;4.43;;;;;;;12.96;62.66;94915.38;5113756;28;20590;-76
2022/09/23 05:18:25;;;;;;;4.63;4.23;;;;;;;13.08;62.54;94910.81;5114218;28;20262;-74
2022/09/23 05:20:55;;;;;;;5.10;4.60;;;;;;;13.19;62.43;94914.94;5113607;28;20207;-74
2022/09/23 05:23:22;;;;;;;4.23;3.90;;;;;;;13.27;62.11;94915.84;5113813;28;20185;-75
2022/09/23 05:25:49;;;;;;;5.60;4.87;;;;;;;13.39;62.06;94919.00;5113678;28;21011;-76
2022/09/23 05:28:18;;;;;;;8.93;4.10;;;;;;;13.52;61.94;94918.59;5113776;28;20254;-74
2022/09/23 05:30:46;;;;;;;6.83;4.20;;;;;;;13.58;61.65;94905.13;5113199;28;20185;-79
2022/09/23 05:33:14;;;;;;;9.50;4.13;;;;;;;13.88;61.46;94924.44;5113384;28;20704;-75
2022/09/23 05:35:47;;;;;;;5.53;4.17;;;;;;;14.12;61.56;94920.38;5113213;28;20666;-77
2022/09/23 05:38:15;;;;;;;6.20;4.17;;;;;;;14.52;62.58;94927.50;5112340;28;20230;-82
2022/09/23 05:40:43;;;;;;;4.37;3.97;;;;;;;14.92;61.93;94923.41;5113341;28;20522;-83
2022/09/23 05:43:10;;;;;;;3.70;3.40;;;;;;;15.31;61.85;94926.19;5103132;28;20611;-75
2022/09/23 05:45:36;;;;;;;4.30;3.90;;;;;;;15.68;61.23;94925.72;5098250;28;20681;-82
2022/09/23 05:48:03;;;;;;;4.13;3.73;;;;;;;16.14;61.19;94925.13;5113045;28;20227;-76
2022/09/23 05:50:32;;;;;;;4.40;4.00;;;;;;;16.64;60.47;94919.59;5113386;28;20181;-80
2022/09/23 05:52:58;;;;;;;4.57;4.17;;;;;;;17.20;59.83;94922.84;5113841;28;20220;-82
2022/09/23 05:55:25;;;;;;;4.00;3.60;;;;;;;17.77;59.20;94914.63;5114488;28;20246;-79
2022/09/23 05:57:52;;;;;;;3.77;3.47;;;;;;;18.52;58.97;94918.84;5117225;28;20259;-78
2022/09/23 06:00:19;;;;;;;3.60;3.30;;;;;;;19.38;57.89;94920.75;5115130;28;20193;-80
2022/09/23 06:02:48;;;;;;;3.30;3.03;;;;;;;20.28;56.75;94915.63;5109720;28;20707;-74
2022/09/23 06:05:15;;;;;;;2.90;2.70;;;;;;;21.20;55.41;94917.00;5113091;28;20688;-79
2022/09/23 06:07:43;;;;;;;4.73;3.07;;;;;;;22.12;53.57;94912.81;5094807;28;20308;-76
2022/09/23 06:10:10;;;;;;;3.55;3.10;;;;;;;22.81;52.14;94882.69;5099675;28;20186;-82
2022/09/23 06:12:37;;;;;;;3.00;2.80;;;;;;;23.86;50.64;94910.94;5103720;28;20177;-80
2022/09/23 06:15:05;;;;;;;3.45;2.65;;;;;;;24.72;49.20;94923.13;5114431;28;20216;-79
2022/09/23 06:17:31;;;;;;;3.00;2.80;;;;;;;25.46;48.05;94906.22;5112237;28;20269;-80
2022/09/23 06:19:58;;;;;;;2.70;2.50;;;;;;;26.20;46.53;94904.00;5097270;28;20239;-74
2022/09/23 06:22:25;;;;;;;5.60;2.55;;;;;;;27.11;45.07;94929.75;5097346;28;20648;-77
2022/09/23 06:24:53;;;;;;;3.08;2.85;;;;;;;27.85;43.77;94916.56;5105582;28;20193;-76
2022/09/23 06:27:20;;;;;;;2.60;2.40;;;;;;;28.55;42.52;94923.09;5101238;28;20193;-74
2022/09/23 06:29:49;;;;;;;2.50;2.13;;;;;;;29.18;41.62;94922.50;5099477;28;20563;-76
2022/09/23 06:32:16;;;;;;;2.88;2.45;;;;;;;29.78;40.69;94923.31;5100670;28;20217;-76
2022/09/23 06:34:44;;;;;;;2.55;2.33;;;;;;;30.34;39.79;94913.16;5094099;28;20237;-76
2022/09/23 06:37:11;;;;;;;3.05;2.45;;;;;;;30.93;38.43;94914.78;5100237;28;20200;-77
2022/09/23 06:39:38;;;;;;;2.20;2.00;;;;;;;31.42;38.03;94915.16;5103047;28;20537;-77
2022/09/23 06:42:06;;;;;;;2.25;2.15;;;;;;;31.89;37.06;94922.06;5101866;28;20200;-80
2022/09/23 06:44:33;;;;;;;3.38;2.35;;;;;;;32.36;36.47;94925.44;5100149;28;20194;-83
2022/09/23 06:47:01;;;;;;;2.67;2.47;;;;;;;32.71;35.79;94922.69;5100135;28;20182;-76
2022/09/23 06:49:28;;;;;;;2.88;2.53;;;;;;;33.12;35.07;94929.72;5100397;28;20197;-77
2022/09/23 06:51:55;;;;;;;3.03;2.20;;;;;;;33.40;34.52;94928.97;5108053;28;20189;-75
2022/09/23 06:54:22;;;;;;;2.35;2.22;;;;;;;33.57;33.98;94909.28;5095164;28;20202;-79
2022/09/23 06:56:49;;;;;;;3.50;2.38;;;;;;;34.02;33.75;94945.28;5096793;28;20192;-77
2022/09/23 06:59:17;;;;;;;2.40;2.30;;;;;;;34.20;33.37;94933.97;5106546;28;20678;-77
2022/09/23 07:01:46;;;;;;;2.72;2.38;;;;;;;34.48;32.86;94947.53;5103505;28;20185;-77
2022/09/23 07:04:13;;;;;;;2.40;2.20;;;;;;;34.69;32.68;94954.19;5095997;28;20185;-80
2022/09/23 07:06:40;;;;;;;2.35;2.15;;;;;;;34.82;32.32;94946.63;5096313;28;20218;-77
2022/09/23 07:09:09;;;;;;;2.33;2.13;;;;;;;35.01;32.06;94949.31;5103717;28;20636;-79
2022/09/23 07:11:36;;;;;;;2.58;2.38;;;;;;;35.28;31.82;94959.34;5101581;28;20194;-77
2022/09/23 07:14:03;;;;;;;2.40;2.22;;;;;;;35.44;31.59;94955.38;5094911;28;20684;-77
2022/09/23 07:16:32;;;;;;;2.90;2.38;;;;;;;35.60;31.29;94962.09;5101269;28;20711;-75
2022/09/23 07:18:59;;;;;;;3.97;2.40;;;;;;;35.68;30.82;94942.81;5097562;28;20201;-77
2022/09/23 07:21:26;;;;;;;2.45;2.25;;;;;;;35.86;30.82;94951.84;5097344;28;20223;-79
2022/09/23 07:23:56;;;;;;;2.42;2.30;;;;;;;36.04;30.61;94955.56;5095808;28;20675;-80
2022/09/23 07:26:24;;;;;;;2.42;2.22;;;;;;;36.15;30.17;94943.69;5096060;28;20223;-78
2022/09/23 07:28:55;;;;;;;3.03;2.10;;;;;;;36.36;30.04;94953.97;5096673;28;20197;-78
2022/09/23 07:31:23;;;;;;;5.18;2.45;;;;;;;36.49;30.10;94963.88;5094567;28;20185;-79
2022/09/23 07:33:57;;;;;;;2.50;2.30;;;;;;;36.43;30.02;94941.81;5101425;28;20204;-75
2022/09/23 07:36:23;;;;;;;2.95;2.35;;;;;;;36.64;29.52;94974.25;5104528;28;20245;-79
2022/09/23 07:38:50;;;;;;;2.80;2.20;;;;;;;36.65;29.48;94962.50;5097068;28;20190;-83
2022/09/23 07:41:19;;;;;;;2.08;1.95;;;;;;;36.79;29.34;94972.38;5099269;28;20276;-84
2022/09/23 07:43:46;;;;;;;2.50;2.30;;;;;;;36.75;29.32;94950.88;5103676;28;20198;-76
2022/09/23 07:46:16;;;;;;;2.17;2.00;;;;;;;36.88;28.98;94981.28;5103611;28;20189;-83
2022/09/23 07:48:44;;;;;;;1.90;1.80;;;;;;;36.97;29.14;94971.53;5101083;28;20189;-83
2022/09/23 07:51:17;;;;;;;2.25;2.15;;;;;;;37.05;28.51;94980.69;5098840;28;20193;-80
2022/09/23 07:53:47;;;;;;;2.00;1.90;;;;;;;37.09;28.40;94977.13;5102569;28;20261;-81
2022/09/23 07:56:14;;;;;;;2.45;2.25;;;;;;;37.13;28.61;94977.31;5081845;28;20247;-81
2022/09/23 07:58:41;;;;;;;2.83;2.00;;;;;;;37.07;28.60;94975.84;5101409;28;20181;-83
2022/09/23 08:01:10;;;;;;;1.90;1.80;;;;;;;37.01;28.37;94972.50;5103911;28;20299;-78
2022/09/23 08:03:41;;;;;;;2.88;2.38;;;;;;;36.91;28.17;94980.66;5104853;28;20207;-76
2022/09/23 08:06:11;;;;;;;2.40;2.20;;;;;;;36.82;28.16;94982.44;5103486;28;20657;-77
2022/09/23 08:08:42;;;;;;;2.08;1.98;;;;;;;36.62;28.21;94959.66;5099946;28;20186;-82
2022/09/23 08:11:10;;;;;;;2.92;2.30;;;;;;;36.61;28.19;94982.03;5099625;28;20185;-84
2022/09/23 08:13:37;;;;;;;3.65;2.45;;;;;;;36.49;28.18;94984.38;5098553;28;20292;-82
2022/09/23 08:16:05;;;;;;;5.13;2.38;;;;;;;36.33;28.18;94976.66;5104256;28;20208;-83
2022/09/23 08:18:32;;;;;;;2.00;1.88;;;;;;;36.23;28.14;94979.50;5098279;28;20189;-80
2022/09/23 08:20:59;;;;;;;2.83;2.47;;;;;;;36.06;28.48;94966.75;5097768;28;20676;-80
2022/09/23 08:23:26;;;;;;;3.08;2.20;;;;;;;35.88;28.45;94967.53;5102697;28;20226;-79
2022/09/23 08:26:00;;;;;;;2.45;2.13;;;;;;;35.60;28.41;94972.75;5100627;28;20266;-76
2022/09/23 08:28:30;;;;;;;1.92;1.83;;;;;;;35.18;28.49;94963.72;5098099;28;20193;-79
2022/09/23 08:30:57;;;;;;;2.70;2.33;;;;;;;34.86;28.43;94972.34;5101681;28;20194;-81
2022/09/23 08:33:24;;;;;;;2.25;2.15;;;;;;;34.67;28.70;94974.97;5108756;28;20200;-82
2022/09/23 08:35:52;;;;;;;2.72;2.10;;;;;;;34.45;28.63;94970.09;5110416;28;20250;-76
2022/09/23 08:38:19;;;;;;;2.30;2.10;;;;;;;34.25;28.65;94969.53;5116665;28;20197;-83
2022/09/23 08:40:49;;;;;;;2.13;2.00;;;;;;;34.07;28.78;94970.97;5092194;28;20204;-83
2022/09/23 08:43:25;;;;;;;2.42;2.20;;;;;;;33.88;28.68;94957.59;5100058;28;20219;-79
2022/09/23 08:45:53;;;;;;;2.10;1.90;;;;;;;33.62;28.99;94939.19;5098180;28;20211;-76
2022/09/23 08:48:27;;;;;;;2.20;2.00;;;;;;;33.65;28.54;94969.69;5093050;28;20206;-77
2022/09/23 08:50:58;;;;;;;2.53;2.30;;;;;;;33.41;29.15;94958.94;5102337;28;20712;-80
2022/09/23 08:53:27;;;;;;;2.15;1.98;;;;;;;33.09;29.15;94948.78;5095854;28;20201;-76
2022/09/23 08:55:57;;;;;;;2.20;2.10;;;;;;;32.25;29.11;94852.38;5108012;28;20220;-78
2022/09/23 08:58:42;;;;;;;5.32;2.00;;;;;;;32.76;28.82;94958.97;5095701;28;20197;-78
2022/09/23 09:01:20;;;;;;;2.30;2.20;;;;;;;32.54;28.89;94955.88;5105496;28;20230;-76
2022/09/23 09:03:52;;;;;;;2.63;2.30;;;;;;;32.13;29.16;94919.66;5101055;28;20201;-77
2022/09/23 09:06:26;;;;;;;3.15;2.33;;;;;;;32.25;28.96;94958.28;5097206;28;20286;-73
2022/09/23 09:08:56;;;;;;;2.40;2.20;;;;;;;32.03;29.18;94946.13;5093311;28;20201;-75
2022/09/23 09:11:31;;;;;;;2.30;2.10;;;;;;;31.77;29.05;94937.38;5092345;28;20268;-75
2022/09/23 09:14:05;;;;;;;2.13;2.03;;;;;;;31.34;29.09;94905.09;5097018;28;20271;-79
2022/09/23 09:16:49;;;;;;;2.38;2.20;;;;;;;31.39;29.35;94941.31;5096248;28;20221;-81
2022/09/23 09:19:20;;;;;;;3.90;2.25;;;;;;;31.27;29.30;94953.97;5100334;28;20205;-76
2022/09/23 09:21:51;;;;;;;3.17;2.13;;;;;;;31.08;29.58;94949.13;5094292;28;20668;-75
2022/09/23 09:24:26;;;;;;;1.90;1.80;;;;;;;30.92;29.38;94947.53;5099550;28;20617;-75
2022/09/23 09:26:53;;;;;;;2.15;2.00;;;;;;;30.72;29.80;94943.75;5093697;28;20193;-75
2022/09/23 09:29:26;;;;;;;2.30;2.15;;;;;;;30.47;29.90;94949.66;5092161;28;20204;-78
2022/09/23 09:31:57;;;;;;;2.30;2.10;;;;;;;30.04;29.91;94945.41;5091030;28;20920;-74
2022/09/23 09:34:30;;;;;;;2.40;2.20;;;;;;;29.50;30.56;94933.09;5094510;28;20197;-79
2022/09/23 09:37:05;;;;;;;2.85;2.20;;;;;;;29.34;30.36;94949.81;5098262;28;20225;-76
2022/09/23 09:39:32;;;;;;;2.85;2.00;;;;;;;29.09;30.41;94952.16;5100441;28;20196;-77
2022/09/23 09:41:59;;;;;;;2.00;1.90;;;;;;;28.86;30.41;94945.31;5102251;28;20193;-76
2022/09/23 09:44:35;;;;;;;2.03;1.92;;;;;;;28.60;30.48;94939.72;5099614;28;20281;-77
2022/09/23 09:47:17;;;;;;;1.98;1.80;;;;;;;28.42;30.68;94951.34;5096689;28;20196;-78
2022/09/23 09:49:51;;;;;;;2.20;2.00;;;;;;;28.24;31.29;94960.28;5101188;28;20189;-78
2022/09/23 09:52:24;;;;;;;1.52;1.50;;;;;;;27.97;31.29;94952.22;5107394;28;20200;-77
2022/09/23 09:54:53;;;;;;;1.85;1.75;;;;;;;27.57;31.29;94933.97;5104403;28;20197;-76
2022/09/23 09:57:30;;;;;;;2.60;1.80;;;;;;;27.48;31.48;94943.28;5096725;28;20197;-75
2022/09/23 10:00:17;;;;;;;2.03;1.90;;;;;;;27.14;31.75;94919.56;5104689;28;20220;-76
2022/09/23 10:02:45;;;;;;;2.50;1.90;;;;;;;27.18;32.02;94946.16;5099680;28;20212;-78
2022/09/23 10:05:25;;;;;;;1.92;1.77;;;;;;;26.80;31.57;94912.59;5105297;28;20283;-79
2022/09/23 10:07:53;;;;;;;2.00;1.83;;;;;;;26.41;32.09;94878.22;5101264;28;20744;-78
2022/09/23 10:10:22;;;;;;;1.90;1.80;;;;;;;26.66;31.86;94936.47;5095656;28;20201;-78
2022/09/23 10:12:51;;;;;;;1.85;1.75;;;;;;;26.48;32.07;94926.16;5105326;28;20632;-76
2022/09/23 10:15:33;;;;;;;3.10;1.90;;;;;;;26.35;32.18;94942.91;5105418;28;20263;-75
2022/09/23 10:18:01;;;;;;;1.90;1.80;;;;;;;26.26;32.28;94936.41;5104887;28;20190;-79
2022/09/23 10:20:37;;;;;;;1.80;1.70;;;;;;;26.14;32.42;94928.53;5097175;28;20205;-81
2022/09/23 10:23:12;;;;;;;2.25;1.95;;;;;;;25.99;32.50;94917.69;5101810;28;20598;-77
2022/09/23 10:25:41;;;;;;;4.28;1.80;;;;;;;25.88;32.62;94908.81;5090550;28;20197;-80
2022/09/23 10:28:30;;;;;;;1.90;1.80;;;;;;;25.93;32.62;94918.63;5102537;28;20189;-80
2022/09/23 10:31:09;;;;;;;2.20;2.00;;;;;;;25.67;32.68;94893.63;5104348;28;20197;-78
2022/09/23 10:33:41;;;;;;;3.63;2.28;;;;;;;25.77;33.04;94920.88;5103564;28;20543;-81
2022/09/23 10:36:09;;;;;;;2.05;1.95;;;;;;;25.57;33.08;94903.88;5094703;28;20255;-82
2022/09/23 10:38:36;;;;;;;2.22;1.80;;;;;;;25.48;32.88;94901.59;5098012;28;20583;-78
2022/09/23 10:47:01;;;;;;;1.83;1.73;;;;;;;25.16;33.22;94901.03;5094814;28;20189;-77
2022/09/23 10:49:57;;;;;;;2.35;1.98;;;;;;;24.98;33.63;94911.53;5101928;28;20193;-76
2022/09/23 10:52:45;;;;;;;2.05;1.80;;;;;;;24.76;33.66;94908.59;5102279;28;20189;-77
2022/09/23 10:55:27;;;;;;;2.17;1.95;;;;;;;24.46;33.70;94887.63;5094200;28;20546;-79
2022/09/23 10:58:09;;;;;;;1.90;1.80;;;;;;;24.52;33.87;94911.09;5096191;28;20663;-78
2022/09/23 11:00:45;;;;;;;3.42;2.20;;;;;;;24.32;34.04;94909.69;5102807;28;20732;-76
2022/09/23 11:03:32;;;;;;;2.40;1.98;;;;;;;24.07;34.29;94905.31;5102830;28;20565;-80
2022/09/23 11:06:10;;;;;;;5.93;2.03;;;;;;;23.85;34.57;94891.06;5093408;28;20201;-82
2022/09/23 11:08:50;;;;;;;2.40;2.20;;;;;;;23.81;34.75;94898.50;5098810;28;20198;-76
2022/09/23 11:11:32;;;;;;;2.00;1.90;;;;;;;23.72;34.64;94882.31;5097551;28;20186;-83
2022/09/23 11:14:32;;;;;;;3.95;2.10;;;;;;;23.69;34.67;94882.75;5106191;28;20243;-80
2022/09/23 11:17:18;;;;;;;2.03;1.92;;;;;;;23.66;34.75;94883.19;5019028;28;20230;-76
2022/09/23 11:20:26;;;;;;;2.47;1.98;;;;;;;23.49;34.48;94858.59;5016498;28;20184;-85
2022/09/23 11:23:20;;;;;;;1.65;1.60;;;;;;;23.62;34.50;94878.56;5019949;28;20203;-78
2022/09/23 11:25:54;;;;;;;1.90;1.80;;;;;;;23.43;34.77;94841.97;5015775;28;20175;-82
2022/09/23 11:28:50;;;;;;;1.83;1.73;;;;;;;23.41;34.51;94845.81;5019525;28;20292;-83
2022/09/23 11:31:31;;;;;;;2.15;2.05;;;;;;;23.55;34.53;94873.41;5018785;28;20216;-78
2022/09/23 11:34:16;;;;;;;2.20;2.00;;;;;;;23.47;34.66;94858.00;5011939;28;20204;-77
2022/09/23 11:36:48;;;;;;;2.17;1.90;;;;;;;23.54;34.43;94866.59;5021284;28;20218;-76
2022/09/23 11:39:19;;;;;;;1.98;1.75;;;;;;;23.39;34.43;94869.50;5014070;28;20231;-84
2022/09/23 11:41:49;;;;;;;1.70;1.60;;;;;;;23.29;34.42;94867.38;5016799;28;20196;-81
2022/09/23 11:44:23;;;;;;;2.65;1.92;;;;;;;22.22;34.38;94727.41;5014376;28;20279;-75
2022/09/23 11:47:04;;;;;;;1.92;1.83;;;;;;;22.83;34.85;94833.72;5016035;28;20543;-78
2022/09/23 11:49:38;;;;;;;2.95;1.90;;;;;;;23.07;35.05;94860.91;5014103;28;20200;-83
2022/09/23 11:52:12;;;;;;;1.80;1.70;;;;;;;23.10;34.64;94850.06;5012385;28;20181;-83
2022/09/23 11:54:50;;;;;;;1.85;1.75;;;;;;;23.04;34.65;94840.44;5091556;28;20391;-79
2022/09/23 11:57:22;;;;;;;1.67;1.58;;;;;;;23.08;34.33;94848.66;5101084;28;20331;-83
2022/09/23 11:59:54;;;;;;;1.70;1.60;;;;;;;22.98;34.57;94854.34;5099941;28;20268;-78